ANA1520 RKPC-RJFF
Flight info
| Callsign | ANA1520 |
|---|---|
| Flight time | 0h 42m |
| Altitude | 17000 |
| Route | TAMNA3W TAMNA Y677 SAMDO A595 IKE |
| Aircraft | B77W/H-SDE1E2E3FGHIJ2J3J4J5M1RWXY/LB1D1 |
Departure
| Time | 2026-04-28 03:17 |
|---|---|
| Airport | Jeju International Airport (RKPC) |
Arrival
| Time | 2026-04-28 03:59 |
|---|---|
| Airport | Fukuoka Airport (RJFF) |
| Time | Latitude | Longitude | Altitude | Speed | Heading |
|---|---|---|---|---|---|
| 2026-04-28 03:04 | 33.50676 | 126.49112 | 93 ft | 0 kts | 149° |
| 2026-04-28 03:11 | 33.50687 | 126.49103 | 93 ft | 2 kts | 146° |
| 2026-04-28 03:11 | 33.50700 | 126.49092 | 94 ft | 2 kts | 140° |
| 2026-04-28 03:11 | 33.50712 | 126.49078 | 93 ft | 2 kts | 129° |
| 2026-04-28 03:11 | 33.50721 | 126.49061 | 95 ft | 2 kts | 103° |
| 2026-04-28 03:12 | 33.50724 | 126.49042 | 93 ft | 2 kts | 103° |
| 2026-04-28 03:12 | 33.50726 | 126.49022 | 93 ft | 2 kts | 86° |
| 2026-04-28 03:12 | 33.50723 | 126.49002 | 93 ft | 2 kts | 75° |
| 2026-04-28 03:12 | 33.50718 | 126.48984 | 94 ft | 2 kts | 64° |
| 2026-04-28 03:13 | 33.50716 | 126.48977 | 94 ft | 0 kts | 59° |
| 2026-04-28 03:14 | 33.50726 | 126.48997 | 93 ft | 6 kts | 59° |
| 2026-04-28 03:14 | 33.50761 | 126.49068 | 93 ft | 14 kts | 58° |
| 2026-04-28 03:14 | 33.50827 | 126.49196 | 95 ft | 19 kts | 58° |
| 2026-04-28 03:14 | 33.50895 | 126.49331 | 94 ft | 19 kts | 60° |
| 2026-04-28 03:15 | 33.50963 | 126.49468 | 95 ft | 19 kts | 58° |
| 2026-04-28 03:15 | 33.51041 | 126.49594 | 94 ft | 19 kts | 38° |
| 2026-04-28 03:15 | 33.51162 | 126.49656 | 94 ft | 19 kts | 19° |
| 2026-04-28 03:15 | 33.51276 | 126.49729 | 97 ft | 19 kts | 50° |
| 2026-04-28 03:16 | 33.51350 | 126.49825 | 97 ft | 13 kts | 16° |
| 2026-04-28 03:16 | 33.51432 | 126.49783 | 98 ft | 13 kts | 322° |
| 2026-04-28 03:16 | 33.51451 | 126.49682 | 100 ft | 15 kts | 250° |
| 2026-04-28 03:16 | 33.51319 | 126.49416 | 97 ft | 68 kts | 238° |
| 2026-04-28 03:17 | 33.50901 | 126.48611 | 98 ft | 156 kts | 237° |
| 2026-04-28 03:17 | 33.49594 | 126.46159 | 1675 ft | 177 kts | 241° |
| 2026-04-28 03:17 | 33.48932 | 126.44851 | 2468 ft | 192 kts | 243° |
| 2026-04-28 03:18 | 33.48188 | 126.43372 | 2832 ft | 226 kts | 242° |
| 2026-04-28 03:18 | 33.47314 | 126.41655 | 3371 ft | 251 kts | 242° |
| 2026-04-28 03:18 | 33.46384 | 126.39850 | 4415 ft | 256 kts | 241° |
| 2026-04-28 03:18 | 33.45444 | 126.38035 | 5610 ft | 256 kts | 241° |
| 2026-04-28 03:19 | 33.44506 | 126.36224 | 6756 ft | 255 kts | 240° |
| 2026-04-28 03:19 | 33.43378 | 126.34573 | 7649 ft | 265 kts | 220° |
| 2026-04-28 03:19 | 33.41701 | 126.33631 | 8552 ft | 278 kts | 198° |
| 2026-04-28 03:19 | 33.39745 | 126.33486 | 9556 ft | 288 kts | 177° |
| 2026-04-28 03:20 | 33.37743 | 126.33863 | 10460 ft | 296 kts | 175° |
| 2026-04-28 03:20 | 33.35619 | 126.34283 | 10905 ft | 323 kts | 175° |
| 2026-04-28 03:20 | 33.33307 | 126.34831 | 11139 ft | 355 kts | 171° |
| 2026-04-28 03:20 | 33.30836 | 126.35528 | 11883 ft | 371 kts | 171° |
| 2026-04-28 03:21 | 33.28305 | 126.36266 | 13061 ft | 376 kts | 171° |
| 2026-04-28 03:21 | 33.25763 | 126.37045 | 14318 ft | 379 kts | 171° |
| 2026-04-28 03:21 | 33.23199 | 126.37908 | 15327 ft | 389 kts | 167° |
| 2026-04-28 03:21 | 33.20687 | 126.39263 | 16388 ft | 403 kts | 157° |
| 2026-04-28 03:22 | 33.18332 | 126.41181 | 17020 ft | 416 kts | 147° |
| 2026-04-28 03:22 | 33.16237 | 126.43566 | 17041 ft | 424 kts | 136° |
| 2026-04-28 03:22 | 33.14490 | 126.46412 | 17047 ft | 427 kts | 126° |
| 2026-04-28 03:22 | 33.13181 | 126.49594 | 17047 ft | 429 kts | 114° |
| 2026-04-28 03:23 | 33.12351 | 126.53033 | 17052 ft | 434 kts | 103° |
| 2026-04-28 03:23 | 33.12029 | 126.56623 | 17050 ft | 437 kts | 92° |
| 2026-04-28 03:23 | 33.12230 | 126.60235 | 17056 ft | 438 kts | 81° |
| 2026-04-28 03:23 | 33.12948 | 126.63763 | 17061 ft | 438 kts | 69° |
| 2026-04-28 03:24 | 33.14064 | 126.67151 | 17058 ft | 437 kts | 64° |
| 2026-04-28 03:24 | 33.15305 | 126.70461 | 17056 ft | 437 kts | 63° |
| 2026-04-28 03:24 | 33.16582 | 126.73756 | 17058 ft | 437 kts | 63° |
| 2026-04-28 03:24 | 33.17935 | 126.77008 | 17048 ft | 435 kts | 57° |
| 2026-04-28 03:25 | 33.19493 | 126.80088 | 17050 ft | 433 kts | 54° |
| 2026-04-28 03:25 | 33.21115 | 126.83125 | 17056 ft | 433 kts | 53° |
| 2026-04-28 03:25 | 33.22729 | 126.86115 | 17059 ft | 433 kts | 53° |
| 2026-04-28 03:25 | 33.24355 | 126.89151 | 17058 ft | 433 kts | 54° |
| 2026-04-28 03:26 | 33.25963 | 126.92191 | 17056 ft | 433 kts | 54° |
| 2026-04-28 03:26 | 33.27563 | 126.95248 | 17055 ft | 433 kts | 54° |
| 2026-04-28 03:26 | 33.29156 | 126.98310 | 17058 ft | 433 kts | 54° |
| 2026-04-28 03:26 | 33.30743 | 127.01373 | 17060 ft | 433 kts | 54° |
| 2026-04-28 03:27 | 33.32328 | 127.04438 | 17061 ft | 433 kts | 54° |
| 2026-04-28 03:27 | 33.33892 | 127.07463 | 17058 ft | 432 kts | 54° |
| 2026-04-28 03:27 | 33.35480 | 127.10527 | 17060 ft | 432 kts | 54° |
| 2026-04-28 03:27 | 33.37063 | 127.13581 | 17044 ft | 432 kts | 54° |
| 2026-04-28 03:28 | 33.38647 | 127.16647 | 17064 ft | 432 kts | 55° |
| 2026-04-28 03:28 | 33.40225 | 127.19710 | 17066 ft | 432 kts | 55° |
| 2026-04-28 03:28 | 33.41805 | 127.22781 | 17047 ft | 432 kts | 55° |
| 2026-04-28 03:28 | 33.43377 | 127.25841 | 17049 ft | 432 kts | 55° |
| 2026-04-28 03:29 | 33.44945 | 127.28906 | 17047 ft | 432 kts | 56° |
| 2026-04-28 03:29 | 33.46291 | 127.32135 | 17049 ft | 435 kts | 65° |
| 2026-04-28 03:29 | 33.47266 | 127.35523 | 17065 ft | 436 kts | 73° |
| 2026-04-28 03:29 | 33.47908 | 127.39074 | 17043 ft | 437 kts | 81° |
| 2026-04-28 03:30 | 33.48337 | 127.42671 | 17057 ft | 437 kts | 82° |
| 2026-04-28 03:30 | 33.48737 | 127.46285 | 17044 ft | 437 kts | 82° |
| 2026-04-28 03:30 | 33.49131 | 127.49901 | 17048 ft | 437 kts | 82° |
| 2026-04-28 03:30 | 33.49530 | 127.53515 | 17051 ft | 437 kts | 82° |
| 2026-04-28 03:31 | 33.49938 | 127.57127 | 17045 ft | 438 kts | 82° |
| 2026-04-28 03:31 | 33.50352 | 127.60746 | 17043 ft | 438 kts | 82° |
| 2026-04-28 03:31 | 33.50771 | 127.64368 | 17043 ft | 438 kts | 82° |
| 2026-04-28 03:31 | 33.51190 | 127.67982 | 17045 ft | 438 kts | 82° |
| 2026-04-28 03:32 | 33.51610 | 127.71602 | 17054 ft | 438 kts | 82° |
| 2026-04-28 03:32 | 33.52028 | 127.75220 | 17045 ft | 438 kts | 82° |
| 2026-04-28 03:32 | 33.52442 | 127.78802 | 17045 ft | 438 kts | 82° |
| 2026-04-28 03:32 | 33.52857 | 127.82418 | 17040 ft | 438 kts | 82° |
| 2026-04-28 03:33 | 33.53272 | 127.86031 | 17040 ft | 437 kts | 82° |
| 2026-04-28 03:33 | 33.53684 | 127.89635 | 17040 ft | 437 kts | 82° |
| 2026-04-28 03:33 | 33.54096 | 127.93250 | 17042 ft | 437 kts | 82° |
| 2026-04-28 03:33 | 33.54506 | 127.96858 | 17040 ft | 437 kts | 82° |
| 2026-04-28 03:34 | 33.54915 | 128.00466 | 17039 ft | 437 kts | 82° |
| 2026-04-28 03:34 | 33.55323 | 128.04072 | 17037 ft | 436 kts | 82° |
| 2026-04-28 03:34 | 33.55730 | 128.07682 | 17039 ft | 436 kts | 82° |
| 2026-04-28 03:34 | 33.56136 | 128.11290 | 17040 ft | 436 kts | 82° |
| 2026-04-28 03:35 | 33.56540 | 128.14894 | 17040 ft | 436 kts | 82° |
| 2026-04-28 03:35 | 33.56944 | 128.18504 | 17036 ft | 436 kts | 82° |
| 2026-04-28 03:35 | 33.57211 | 128.20896 | 17030 ft | 436 kts | 82° |
| 2026-04-28 03:35 | 33.57743 | 128.25671 | 17033 ft | 436 kts | 82° |
| 2026-04-28 03:36 | 33.58144 | 128.29283 | 17035 ft | 436 kts | 82° |
| 2026-04-28 03:36 | 33.58546 | 128.32895 | 17034 ft | 436 kts | 82° |
| 2026-04-28 03:36 | 33.58962 | 128.36498 | 17032 ft | 436 kts | 82° |
| 2026-04-28 03:36 | 33.59388 | 128.40106 | 17030 ft | 437 kts | 82° |
| 2026-04-28 03:37 | 33.59815 | 128.43716 | 17030 ft | 437 kts | 82° |
| 2026-04-28 03:37 | 33.60097 | 128.46105 | 17034 ft | 437 kts | 82° |
| 2026-04-28 03:37 | 33.60523 | 128.49724 | 17036 ft | 437 kts | 82° |
| 2026-04-28 03:37 | 33.60943 | 128.53317 | 17032 ft | 437 kts | 82° |
| 2026-04-28 03:38 | 33.61364 | 128.56938 | 17033 ft | 437 kts | 82° |
| 2026-04-28 03:38 | 33.61783 | 128.60549 | 17029 ft | 437 kts | 82° |
| 2026-04-28 03:38 | 33.62199 | 128.64155 | 17026 ft | 437 kts | 82° |
| 2026-04-28 03:38 | 33.62615 | 128.67765 | 17029 ft | 437 kts | 82° |
| 2026-04-28 03:39 | 33.63029 | 128.71373 | 17026 ft | 437 kts | 82° |
| 2026-04-28 03:39 | 33.63443 | 128.74990 | 17029 ft | 437 kts | 82° |
| 2026-04-28 03:39 | 33.63856 | 128.78603 | 17029 ft | 437 kts | 82° |
| 2026-04-28 03:39 | 33.64267 | 128.82217 | 17027 ft | 437 kts | 82° |
| 2026-04-28 03:40 | 33.64674 | 128.85792 | 17024 ft | 437 kts | 82° |
| 2026-04-28 03:40 | 33.65083 | 128.89400 | 17027 ft | 437 kts | 82° |
| 2026-04-28 03:40 | 33.65491 | 128.93014 | 17029 ft | 437 kts | 82° |
| 2026-04-28 03:40 | 33.65898 | 128.96625 | 17029 ft | 437 kts | 82° |
| 2026-04-28 03:41 | 33.66306 | 129.00249 | 17024 ft | 437 kts | 82° |
| 2026-04-28 03:41 | 33.66711 | 129.03865 | 17023 ft | 437 kts | 82° |
| 2026-04-28 03:41 | 33.67115 | 129.07478 | 17019 ft | 437 kts | 82° |
| 2026-04-28 03:41 | 33.67514 | 129.11049 | 17022 ft | 437 kts | 82° |
| 2026-04-28 03:42 | 33.67917 | 129.14673 | 17019 ft | 437 kts | 82° |
| 2026-04-28 03:42 | 33.68318 | 129.18288 | 17022 ft | 437 kts | 82° |
| 2026-04-28 03:42 | 33.68718 | 129.21906 | 17022 ft | 437 kts | 82° |
| 2026-04-28 03:42 | 33.69117 | 129.25520 | 17024 ft | 437 kts | 82° |
| 2026-04-28 03:43 | 33.69512 | 129.29109 | 17003 ft | 429 kts | 83° |
| 2026-04-28 03:43 | 33.69900 | 129.32619 | 16821 ft | 420 kts | 83° |
| 2026-04-28 03:43 | 33.70281 | 129.36070 | 16480 ft | 413 kts | 83° |
| 2026-04-28 03:43 | 33.70657 | 129.39476 | 16041 ft | 410 kts | 83° |
| 2026-04-28 03:44 | 33.71029 | 129.42860 | 15615 ft | 407 kts | 83° |
| 2026-04-28 03:44 | 33.71397 | 129.46210 | 15228 ft | 403 kts | 83° |
| 2026-04-28 03:44 | 33.71759 | 129.49527 | 14855 ft | 398 kts | 83° |
| 2026-04-28 03:44 | 33.72117 | 129.52802 | 14486 ft | 393 kts | 84° |
| 2026-04-28 03:45 | 33.72469 | 129.56042 | 14108 ft | 390 kts | 84° |
| 2026-04-28 03:45 | 33.72817 | 129.59256 | 13731 ft | 385 kts | 84° |
| 2026-04-28 03:45 | 33.73161 | 129.62433 | 13308 ft | 382 kts | 84° |
| 2026-04-28 03:45 | 33.73500 | 129.65579 | 12868 ft | 379 kts | 84° |
| 2026-04-28 03:46 | 33.73833 | 129.68673 | 12464 ft | 376 kts | 84° |
| 2026-04-28 03:46 | 33.74163 | 129.71737 | 12385 ft | 363 kts | 83° |
| 2026-04-28 03:46 | 33.74480 | 129.74686 | 12273 ft | 345 kts | 84° |
| 2026-04-28 03:46 | 33.74797 | 129.77478 | 11980 ft | 328 kts | 80° |
| 2026-04-28 03:47 | 33.75472 | 129.80055 | 11512 ft | 320 kts | 66° |
| 2026-04-28 03:47 | 33.76370 | 129.82479 | 11029 ft | 315 kts | 64° |
| 2026-04-28 03:47 | 33.77278 | 129.84860 | 10497 ft | 312 kts | 64° |
| 2026-04-28 03:47 | 33.78163 | 129.87200 | 9984 ft | 309 kts | 64° |
| 2026-04-28 03:48 | 33.79038 | 129.89550 | 9439 ft | 306 kts | 64° |
| 2026-04-28 03:48 | 33.79894 | 129.91879 | 8910 ft | 303 kts | 65° |
| 2026-04-28 03:48 | 33.80749 | 129.94226 | 8574 ft | 308 kts | 65° |
| 2026-04-28 03:48 | 33.81607 | 129.96597 | 8555 ft | 313 kts | 65° |
| 2026-04-28 03:49 | 33.82481 | 129.99016 | 8558 ft | 317 kts | 65° |
| 2026-04-28 03:49 | 33.83403 | 130.01565 | 9046 ft | 326 kts | 65° |
| 2026-04-28 03:49 | 33.83661 | 130.02280 | 9063 ft | 323 kts | 65° |
| 2026-04-28 03:49 | 33.84506 | 130.04644 | 8868 ft | 312 kts | 65° |
| 2026-04-28 03:50 | 33.85351 | 130.07014 | 8620 ft | 305 kts | 65° |
| 2026-04-28 03:50 | 33.86182 | 130.09339 | 8181 ft | 299 kts | 65° |
| 2026-04-28 03:50 | 33.86988 | 130.11592 | 7677 ft | 295 kts | 65° |
| 2026-04-28 03:50 | 33.87786 | 130.13824 | 7374 ft | 283 kts | 65° |
| 2026-04-28 03:51 | 33.88543 | 130.15942 | 7237 ft | 268 kts | 65° |
| 2026-04-28 03:51 | 33.89266 | 130.17960 | 7043 ft | 258 kts | 64° |
| 2026-04-28 03:51 | 33.89944 | 130.19921 | 6844 ft | 251 kts | 72° |
| 2026-04-28 03:51 | 33.90048 | 130.21983 | 6520 ft | 247 kts | 107° |
| 2026-04-28 03:52 | 33.89273 | 130.23764 | 6165 ft | 238 kts | 138° |
| 2026-04-28 03:52 | 33.88026 | 130.25002 | 5852 ft | 229 kts | 153° |
| 2026-04-28 03:52 | 33.86638 | 130.25936 | 5609 ft | 227 kts | 159° |
| 2026-04-28 03:52 | 33.85249 | 130.26806 | 5499 ft | 221 kts | 158° |
| 2026-04-28 03:53 | 33.83933 | 130.27673 | 5331 ft | 211 kts | 158° |
| 2026-04-28 03:53 | 33.82659 | 130.28535 | 4934 ft | 211 kts | 157° |
| 2026-04-28 03:53 | 33.81380 | 130.29410 | 4490 ft | 210 kts | 157° |
| 2026-04-28 03:53 | 33.80119 | 130.30278 | 4113 ft | 207 kts | 156° |
| 2026-04-28 03:54 | 33.78881 | 130.31131 | 3736 ft | 204 kts | 156° |
| 2026-04-28 03:54 | 33.77650 | 130.31978 | 3379 ft | 206 kts | 156° |
| 2026-04-28 03:54 | 33.76395 | 130.32842 | 3037 ft | 208 kts | 155° |
| 2026-04-28 03:54 | 33.75180 | 130.33682 | 2992 ft | 193 kts | 156° |
| 2026-04-28 03:55 | 33.74046 | 130.34462 | 2990 ft | 193 kts | 156° |
| 2026-04-28 03:55 | 33.72872 | 130.35267 | 2980 ft | 194 kts | 156° |
| 2026-04-28 03:55 | 33.71701 | 130.36073 | 2729 ft | 191 kts | 155° |
| 2026-04-28 03:55 | 33.70585 | 130.36843 | 2473 ft | 177 kts | 155° |
| 2026-04-28 03:56 | 33.69568 | 130.37544 | 2232 ft | 160 kts | 156° |
| 2026-04-28 03:56 | 33.68663 | 130.38166 | 2041 ft | 142 kts | 157° |
| 2026-04-28 03:56 | 33.67797 | 130.38759 | 1835 ft | 144 kts | 157° |
| 2026-04-28 03:56 | 33.66923 | 130.39357 | 1669 ft | 145 kts | 157° |
| 2026-04-28 03:57 | 33.66065 | 130.39947 | 1458 ft | 143 kts | 156° |
| 2026-04-28 03:57 | 33.65190 | 130.40547 | 1261 ft | 146 kts | 157° |
| 2026-04-28 03:57 | 33.64318 | 130.41141 | 1085 ft | 145 kts | 157° |
| 2026-04-28 03:57 | 33.63431 | 130.41755 | 885 ft | 149 kts | 154° |
| 2026-04-28 03:58 | 33.62556 | 130.42360 | 671 ft | 140 kts | 155° |
| 2026-04-28 03:58 | 33.61721 | 130.42930 | 477 ft | 136 kts | 154° |
| 2026-04-28 03:58 | 33.60918 | 130.43491 | 355 ft | 131 kts | 153° |
| 2026-04-28 03:58 | 33.60127 | 130.44035 | 176 ft | 130 kts | 155° |
| 2026-04-28 03:59 | 33.59364 | 130.44546 | 36 ft | 120 kts | 153° |
| 2026-04-28 03:59 | 33.58729 | 130.44975 | 39 ft | 81 kts | 151° |
| 2026-04-28 03:59 | 33.58389 | 130.45210 | 41 ft | 34 kts | 152° |
| 2026-04-28 03:59 | 33.58167 | 130.45264 | 42 ft | 32 kts | 178° |
| 2026-04-28 04:00 | 33.57998 | 130.45209 | 42 ft | 20 kts | 231° |
| 2026-04-28 04:00 | 33.58001 | 130.45077 | 41 ft | 18 kts | 318° |
| 2026-04-28 04:00 | 33.58109 | 130.45004 | 42 ft | 18 kts | 330° |
| 2026-04-28 04:00 | 33.58217 | 130.44932 | 42 ft | 18 kts | 330° |
| 2026-04-28 04:01 | 33.58325 | 130.44860 | 43 ft | 18 kts | 331° |
| 2026-04-28 04:01 | 33.58433 | 130.44788 | 43 ft | 18 kts | 331° |
| 2026-04-28 04:01 | 33.58527 | 130.44726 | 42 ft | 5 kts | 331° |
| 2026-04-28 04:01 | 33.58550 | 130.44693 | 41 ft | 6 kts | 275° |
| 2026-04-28 04:02 | 33.58530 | 130.44641 | 40 ft | 8 kts | 242° |
| 2026-04-28 04:02 | 33.58500 | 130.44575 | 40 ft | 8 kts | 241° |
| 2026-04-28 04:02 | 33.58497 | 130.44569 | 40 ft | 0 kts | 241° |